Disclaimer

Please do not use the information listed here in-flight or in-navigation, as they are not provided to us by the airports but are provided by volunteers, so they might be outdated.

Search


Regions


Airport information page

Radio informations:
MALMO APP - 132.45 MHz

Airport informations:
Latitude: 56° 17' 45.86" N
Longitude: 012° 50' 49.70" E
Elevation: 68 feet - 21 meters
Operating hours: Remarks
Operating agency: Civil government, landing fees and diplomatic clearance may be required
Timezone: UTC+1(+2DT) - Last Sunday in March to last Sunday in October
Fuel: Jet A1, without icing nhibitor.

100/130 MIL Spec, low lead, aviation gasoline (BLUE)

Runway information:
04/22 - 6552 x 131 feet< - >1997 x 40 meters
14/32 - 6381 x 131 feet< - >1945 x 40 meters

Recent METARs:
ESTA 160820Z AUTO 11009KT 9999 OVC049/// 01/M01 Q1019
ESTA 160850Z AUTO 10009KT 9999 OVC051/// 01/M01 Q1019
ESTA 160920Z AUTO 11008KT 9999 OVC055/// 02/M01 Q1019

Airport on the map: